Airfield :
LOGIN :

Register | Disclaimer

   EN    FR    IT 

 










Legend :    VFR   Marginal VFR   IFR   Intensive IFR   Very Intensive IFR
Visi :
Ceiling :
>= 8 km
>= 3000ft
5 to 8 km
1000 to 3000 ft
1500m to 5 km
500 to 1000 ft
800 to 1500m
200 to 500 ft
< 800m
< 200 ft
Symbols :   Thunderstorms  Fog  Heavy snow  Heavy precipitations  Wind > 20 kt
SIGMETs :     Misc.  Thunderstorms  Icing  Turbulence  Mountain Waves  Volcanic Ashes







- Airport Elevation : 247 ft
- IATA code : BLL


EKBI - Billund

CURRENT METAR :
  • 220850Z AUTO 23011KT 200V260 6000NDV OVC003/// 11/11 Q0997

EXPIRED METARs :
  • 220820Z AUTO 22009KT 190V250 2800NDV -SHRA BR OVC003/// 11/11 Q0997
  • 220750Z 22008KT 3500 DZ OVC004 11/11 Q0996
  • 220720Z 23010KT 200V260 3500 DZ OVC003 11/11 Q0996
  • 220650Z 22010KT 6000 OVC003 11/10 Q0996
  • 220620Z 22012KT 2500 DZ OVC003 10/10 Q0996

TAF AMD TAF EKBI
Valid from the 22 at 06:00 until the 23 at 06:00 UTC


220854Z 2206/2306 21010KT 7000 BKN008
TEMPO 2206/2215 2000 RADZ BR BKN003
BECMG 2214/2216 21015KT
TEMPO 2215/2219 4000 RADZ BKN010
BECMG 2219/2222 BKN020
No reported NOTAMs for that airfield.



MET'MAP, your aeronautical weather chart ! - Copyright ORBIFLY December 2007 - Disclaimer

ORBIFLY MET'MAP TEAM :

Programming & Development : Alexandra Zaïnal
Concept & Development : Baudouin d'Aumeries
Co-Development & Prog : Marc-Olivier Méhu
Technical & hardware support : Manuel Goepfert

Contact : metmap@orbifly.com




SOURCES & CREDITS :

   NOAA